This is the latest recevied weather packets stored in our database for station/object F5TND-3. If no packets are shown the sender has not sent any weather packets the latest 10 day(s).
| Time | Temp. | Humidity | Pressure | Rain* | Wind** | Luminosity | Snow |
|---|---|---|---|---|---|---|---|
| 1787392864 | 22.78° C | 40% | 1017.7 hPa | - | - | - | - |
| 1787391664 | 26.67° C | 35% | 1017.6 hPa | - | - | - | - |
| 1787390464 | 22.78° C | 44% | 1017.8 hPa | - | - | - | - |
| 1787389264 | 22.78° C | 47% | 1017.7 hPa | - | - | - | - |
| 1787388064 | 23.33° C | 48% | 1017.7 hPa | - | - | - | - |
| 1787386864 | 20° C | 58% | 1017.7 hPa | - | - | - | - |
| 1787385664 | 20.56° C | 58% | 1017.7 hPa | - | - | - | - |
| 1787384464 | 17.78° C | 69% | 1017.5 hPa | - | - | - | - |
| 1787383264 | 17.22° C | 70% | 1017.5 hPa | - | - | - | - |
| 1787382067 | 16.67° C | 71% | 1017.3 hPa | - | - | - | - |
| 1787380858 | 15.56° C | 76% | 1017.3 hPa | - | - | - | - |
| 1787379658 | 15° C | 80% | 1017 hPa | - | - | - | - |
| 1787378458 | 15.56° C | 74% | 1016.6 hPa | - | - | - | - |
| 1787377258 | 13.89° C | 84% | 1016.5 hPa | - | - | - | - |
| 1787376058 | 12.22° C | 92% | 1016.3 hPa | - | - | - | - |
| 1787375860 | 12.22° C | 92% | 1016.2 hPa | - | - | - | - |
| 1787374660 | 11.67° C | 95% | 1016.2 hPa | - | - | - | - |
| 1787373460 | 11.11° C | 95% | 1016 hPa | - | - | - | - |
| 1787372260 | 11.11° C | 93% | 1016.1 hPa | - | - | - | - |
| 1787371060 | 12.22° C | 88% | 1016.2 hPa | - | - | - | - |
| 1787369860 | 11.67° C | 90% | 1016.2 hPa | - | - | - | - |
| 1787368660 | 12.22° C | 90% | 1016.2 hPa | - | - | - | - |
| 1787367460 | 11.67° C | 91% | 1016.3 hPa | - | - | - | - |
| 1787366260 | 11.67° C | 90% | 1016.1 hPa | - | - | - | - |
| 1787365060 | 12.22° C | 85% | 1016.1 hPa | - | - | - | - |
* Rain since midnight (hover to see other rain measurements)
** Current wind speed in m/s (hover to see current wind gust speed)